ePrivacy and GPDR Cookie Consent by Cookie Consent
EmailTwitter


Observations de surface / Québec / CYUL (71627)

Régions: Québec | Canada | États-Unis | Europe | France | UK | Ailleurs
Station
Affichage
Infos & localisation pour CYUL (71627) | Aide pour décoder les METARs

Observations prises le 2021-10-17 à 16H00 UTC à MONTREAL INTL A, QB (CYUL)

Etat du ciel: quelques nuages.

Température: 12.0 Celsius

Point de rosée: 6.0 Celsius

Humidité relative: 67%

Vents: Sud-ouest à 15 km/h ou 8 noeuds.

Pression au niveau moyen de la mer: 100.61 kilopascals.

Calage altimétrique: 100.58 kilopascals ou 29.70 pouces de mercure.

Visibilité horizontale: 30.00 milles terrestres ou 48.00 kilomètres.

Observation METAR:

CYUL 171600Z 23008KT 30SM FEW025 12/06 A2970 RMK CU2 SLP061=